sensor_id;sensor_type;location;lat;lon;timestamp;temperature;humidity
66213;SHT31;53015;50.046;8.238;2023-11-19T00:00:58;9.34;96.98
66213;SHT31;53015;50.046;8.238;2023-11-19T00:03:23;9.36;97.26
66213;SHT31;53015;50.046;8.238;2023-11-19T00:05:49;9.27;97.05
66213;SHT31;53015;50.046;8.238;2023-11-19T00:08:14;9.28;97.25
66213;SHT31;53015;50.046;8.238;2023-11-19T00:10:40;9.15;97.32
66213;SHT31;53015;50.046;8.238;2023-11-19T00:13:05;8.90;98.42
66213;SHT31;53015;50.046;8.238;2023-11-19T00:15:31;8.84;99.04
66213;SHT31;53015;50.046;8.238;2023-11-19T00:17:58;8.90;98.72
66213;SHT31;53015;50.046;8.238;2023-11-19T00:20:23;8.84;98.82
66213;SHT31;53015;50.046;8.238;2023-11-19T00:22:49;8.77;98.69
66213;SHT31;53015;50.046;8.238;2023-11-19T00:25:15;8.81;98.95
66213;SHT31;53015;50.046;8.238;2023-11-19T00:27:40;8.80;98.74
66213;SHT31;53015;50.046;8.238;2023-11-19T00:30:06;9.04;98.67
66213;SHT31;53015;50.046;8.238;2023-11-19T00:32:32;9.14;97.98
66213;SHT31;53015;50.046;8.238;2023-11-19T00:34:59;9.15;98.02
66213;SHT31;53015;50.046;8.238;2023-11-19T00:37:24;9.35;97.63
66213;SHT31;53015;50.046;8.238;2023-11-19T00:39:50;9.42;97.22
66213;SHT31;53015;50.046;8.238;2023-11-19T00:42:15;9.46;97.16
66213;SHT31;53015;50.046;8.238;2023-11-19T00:44:41;9.43;97.02
66213;SHT31;53015;50.046;8.238;2023-11-19T00:47:06;9.35;97.31
66213;SHT31;53015;50.046;8.238;2023-11-19T00:49:32;9.14;98.05
66213;SHT31;53015;50.046;8.238;2023-11-19T00:51:59;9.13;98.06
66213;SHT31;53015;50.046;8.238;2023-11-19T00:54:24;9.18;98.40
66213;SHT31;53015;50.046;8.238;2023-11-19T00:56:50;9.23;98.52
66213;SHT31;53015;50.046;8.238;2023-11-19T00:59:15;9.32;98.15
66213;SHT31;53015;50.046;8.238;2023-11-19T01:01:41;9.30;97.93
66213;SHT31;53015;50.046;8.238;2023-11-19T01:04:06;9.35;98.23
66213;SHT31;53015;50.046;8.238;2023-11-19T01:06:32;9.27;97.89
66213;SHT31;53015;50.046;8.238;2023-11-19T01:08:59;9.35;98.42
66213;SHT31;53015;50.046;8.238;2023-11-19T01:11:25;9.27;98.75
66213;SHT31;53015;50.046;8.238;2023-11-19T01:13:51;9.30;98.02
66213;SHT31;53015;50.046;8.238;2023-11-19T01:16:17;9.42;98.22
66213;SHT31;53015;50.046;8.238;2023-11-19T01:18:43;9.49;97.84
66213;SHT31;53015;50.046;8.238;2023-11-19T01:21:09;9.53;97.71
66213;SHT31;53015;50.046;8.238;2023-11-19T01:23:34;9.45;97.21
66213;SHT31;53015;50.046;8.238;2023-11-19T01:26:01;9.42;97.43
66213;SHT31;53015;50.046;8.238;2023-11-19T01:28:27;9.46;98.28
66213;SHT31;53015;50.046;8.238;2023-11-19T01:30:52;9.45;97.53
66213;SHT31;53015;50.046;8.238;2023-11-19T01:33:18;9.56;97.94
66213;SHT31;53015;50.046;8.238;2023-11-19T01:35:44;9.66;97.76
66213;SHT31;53015;50.046;8.238;2023-11-19T01:38:10;9.68;97.60
66213;SHT31;53015;50.046;8.238;2023-11-19T01:40:36;9.68;97.74
66213;SHT31;53015;50.046;8.238;2023-11-19T01:43:03;9.61;97.94
66213;SHT31;53015;50.046;8.238;2023-11-19T01:45:29;9.65;97.97
66213;SHT31;53015;50.046;8.238;2023-11-19T01:47:55;9.69;98.01
66213;SHT31;53015;50.046;8.238;2023-11-19T01:50:21;9.59;97.82
66213;SHT31;53015;50.046;8.238;2023-11-19T01:52:47;9.69;97.98
66213;SHT31;53015;50.046;8.238;2023-11-19T01:55:13;9.73;97.92
66213;SHT31;53015;50.046;8.238;2023-11-19T01:57:39;9.69;97.86
66213;SHT31;53015;50.046;8.238;2023-11-19T02:00:08;9.59;97.97
66213;SHT31;53015;50.046;8.238;2023-11-19T02:02:35;9.45;98.40
66213;SHT31;53015;50.046;8.238;2023-11-19T02:05:00;9.36;98.91
66213;SHT31;53015;50.046;8.238;2023-11-19T02:07:26;9.34;99.53
66213;SHT31;53015;50.046;8.238;2023-11-19T02:09:52;9.49;99.17
66213;SHT31;53015;50.046;8.238;2023-11-19T02:12:17;9.59;98.68
66213;SHT31;53015;50.046;8.238;2023-11-19T02:14:43;9.56;98.84
66213;SHT31;53015;50.046;8.238;2023-11-19T02:17:28;9.73;98.47
66213;SHT31;53015;50.046;8.238;2023-11-19T02:19:53;9.70;97.48
66213;SHT31;53015;50.046;8.238;2023-11-19T02:22:19;9.80;98.18
66213;SHT31;53015;50.046;8.238;2023-11-19T02:24:46;9.83;98.14
66213;SHT31;53015;50.046;8.238;2023-11-19T02:27:18;9.85;97.86
66213;SHT31;53015;50.046;8.238;2023-11-19T02:29:48;9.76;97.26
66213;SHT31;53015;50.046;8.238;2023-11-19T02:32:15;9.75;98.24
66213;SHT31;53015;50.046;8.238;2023-11-19T02:34:41;9.86;98.10
66213;SHT31;53015;50.046;8.238;2023-11-19T02:37:06;9.87;97.78
66213;SHT31;53015;50.046;8.238;2023-11-19T02:39:32;9.86;97.91
66213;SHT31;53015;50.046;8.238;2023-11-19T02:41:57;9.85;97.79
66213;SHT31;53015;50.046;8.238;2023-11-19T02:44:23;9.78;97.82
66213;SHT31;53015;50.046;8.238;2023-11-19T02:46:50;9.86;98.06
66213;SHT31;53015;50.046;8.238;2023-11-19T02:49:15;9.86;97.54
66213;SHT31;53015;50.046;8.238;2023-11-19T02:51:41;9.90;97.81
66213;SHT31;53015;50.046;8.238;2023-11-19T02:54:06;9.90;97.89
66213;SHT31;53015;50.046;8.238;2023-11-19T02:56:32;9.78;98.08
66213;SHT31;53015;50.046;8.238;2023-11-19T02:58:57;9.73;97.48
66213;SHT31;53015;50.046;8.238;2023-11-19T03:01:23;9.83;98.04
66213;SHT31;53015;50.046;8.238;2023-11-19T03:03:50;9.78;97.49
66213;SHT31;53015;50.046;8.238;2023-11-19T03:06:16;9.75;98.37
66213;SHT31;53015;50.046;8.238;2023-11-19T03:08:41;9.68;97.92
66213;SHT31;53015;50.046;8.238;2023-11-19T03:11:08;9.78;98.53
66213;SHT31;53015;50.046;8.238;2023-11-19T03:13:33;9.69;98.58
66213;SHT31;53015;50.046;8.238;2023-11-19T03:15:59;9.70;98.30
66213;SHT31;53015;50.046;8.238;2023-11-19T03:18:24;9.75;98.50
66213;SHT31;53015;50.046;8.238;2023-11-19T03:20:51;9.76;97.67
66213;SHT31;53015;50.046;8.238;2023-11-19T03:23:17;9.87;98.05
66213;SHT31;53015;50.046;8.238;2023-11-19T03:25:43;9.78;97.71
66213;SHT31;53015;50.046;8.238;2023-11-19T03:28:08;9.72;98.14
66213;SHT31;53015;50.046;8.238;2023-11-19T03:30:34;9.68;98.44
66213;SHT31;53015;50.046;8.238;2023-11-19T03:32:59;9.61;98.50
66213;SHT31;53015;50.046;8.238;2023-11-19T03:35:25;9.49;98.81
66213;SHT31;53015;50.046;8.238;2023-11-19T03:37:52;9.43;99.35
66213;SHT31;53015;50.046;8.238;2023-11-19T03:40:18;9.42;99.20
66213;SHT31;53015;50.046;8.238;2023-11-19T03:42:43;9.43;99.23
66213;SHT31;53015;50.046;8.238;2023-11-19T03:45:09;9.43;99.56
66213;SHT31;53015;50.046;8.238;2023-11-19T03:47:35;9.41;99.87
66213;SHT31;53015;50.046;8.238;2023-11-19T03:50:01;9.49;99.99
66213;SHT31;53015;50.046;8.238;2023-11-19T03:52:27;9.48;99.77
66213;SHT31;53015;50.046;8.238;2023-11-19T03:54:54;9.55;99.52
66213;SHT31;53015;50.046;8.238;2023-11-19T03:57:20;9.56;99.18
66213;SHT31;53015;50.046;8.238;2023-11-19T03:59:45;9.55;99.43
66213;SHT31;53015;50.046;8.238;2023-11-19T04:02:10;9.72;99.26
66213;SHT31;53015;50.046;8.238;2023-11-19T04:04:36;9.90;98.68
66213;SHT31;53015;50.046;8.238;2023-11-19T04:07:02;9.90;98.25
66213;SHT31;53015;50.046;8.238;2023-11-19T04:09:27;9.94;98.00
66213;SHT31;53015;50.046;8.238;2023-11-19T04:11:54;9.86;98.06
66213;SHT31;53015;50.046;8.238;2023-11-19T04:14:20;9.82;98.60
66213;SHT31;53015;50.046;8.238;2023-11-19T04:16:45;9.93;98.27
66213;SHT31;53015;50.046;8.238;2023-11-19T04:19:11;10.01;98.06
66213;SHT31;53015;50.046;8.238;2023-11-19T04:21:36;9.98;97.73
66213;SHT31;53015;50.046;8.238;2023-11-19T04:24:02;9.82;98.24
66213;SHT31;53015;50.046;8.238;2023-11-19T04:26:28;9.82;98.06
66213;SHT31;53015;50.046;8.238;2023-11-19T04:28:55;9.78;98.35
66213;SHT31;53015;50.046;8.238;2023-11-19T04:31:20;9.78;98.72
66213;SHT31;53015;50.046;8.238;2023-11-19T04:33:46;9.80;98.50
66213;SHT31;53015;50.046;8.238;2023-11-19T04:36:11;9.61;99.02
66213;SHT31;53015;50.046;8.238;2023-11-19T04:38:37;9.73;99.26
66213;SHT31;53015;50.046;8.238;2023-11-19T04:41:03;9.94;98.78
66213;SHT31;53015;50.046;8.238;2023-11-19T04:43:28;9.96;98.32
66213;SHT31;53015;50.046;8.238;2023-11-19T04:45:55;10.07;98.08
66213;SHT31;53015;50.046;8.238;2023-11-19T04:48:21;10.13;98.04
66213;SHT31;53015;50.046;8.238;2023-11-19T04:50:46;10.20;97.79
66213;SHT31;53015;50.046;8.238;2023-11-19T04:53:12;10.16;97.33
66213;SHT31;53015;50.046;8.238;2023-11-19T04:55:37;10.04;97.65
66213;SHT31;53015;50.046;8.238;2023-11-19T04:58:03;10.08;97.67
66213;SHT31;53015;50.046;8.238;2023-11-19T05:00:28;10.06;97.42
66213;SHT31;53015;50.046;8.238;2023-11-19T05:02:57;9.85;98.28
66213;SHT31;53015;50.046;8.238;2023-11-19T05:05:23;9.80;99.27
66213;SHT31;53015;50.046;8.238;2023-11-19T05:07:48;9.66;99.17
66213;SHT31;53015;50.046;8.238;2023-11-19T05:10:14;9.55;99.99
66213;SHT31;53015;50.046;8.238;2023-11-19T05:12:40;9.65;99.94
66213;SHT31;53015;50.046;8.238;2023-11-19T05:15:06;9.80;99.70
66213;SHT31;53015;50.046;8.238;2023-11-19T05:17:32;9.86;99.07
66213;SHT31;53015;50.046;8.238;2023-11-19T05:19:59;9.82;99.26
66213;SHT31;53015;50.046;8.238;2023-11-19T05:22:25;9.97;99.04
66213;SHT31;53015;50.046;8.238;2023-11-19T05:24:50;10.06;98.83
66213;SHT31;53015;50.046;8.238;2023-11-19T05:27:16;10.10;98.41
66213;SHT31;53015;50.046;8.238;2023-11-19T05:29:42;10.20;98.05
66213;SHT31;53015;50.046;8.238;2023-11-19T05:32:07;10.16;98.10
66213;SHT31;53015;50.046;8.238;2023-11-19T05:34:33;10.14;98.17
66213;SHT31;53015;50.046;8.238;2023-11-19T05:36:59;10.04;98.33
66213;SHT31;53015;50.046;8.238;2023-11-19T05:39:25;9.98;98.79
66213;SHT31;53015;50.046;8.238;2023-11-19T05:41:51;10.03;98.89
66213;SHT31;53015;50.046;8.238;2023-11-19T05:44:17;9.87;99.03
66213;SHT31;53015;50.046;8.238;2023-11-19T05:46:42;9.91;99.31
66213;SHT31;53015;50.046;8.238;2023-11-19T05:49:08;9.76;99.38
66213;SHT31;53015;50.046;8.238;2023-11-19T05:51:36;9.70;99.99
66213;SHT31;53015;50.046;8.238;2023-11-19T05:54:03;9.82;99.99
66213;SHT31;53015;50.046;8.238;2023-11-19T05:56:29;9.83;99.99
66213;SHT31;53015;50.046;8.238;2023-11-19T05:58:54;9.94;99.28
66213;SHT31;53015;50.046;8.238;2023-11-19T06:01:20;9.82;99.75
66213;SHT31;53015;50.046;8.238;2023-11-19T06:03:46;9.93;99.88
66213;SHT31;53015;50.046;8.238;2023-11-19T06:06:11;9.97;99.27
66213;SHT31;53015;50.046;8.238;2023-11-19T06:08:37;9.96;99.11
66213;SHT31;53015;50.046;8.238;2023-11-19T06:11:04;9.82;99.91
66213;SHT31;53015;50.046;8.238;2023-11-19T06:13:30;9.82;99.88
66213;SHT31;53015;50.046;8.238;2023-11-19T06:15:56;9.79;99.99
66213;SHT31;53015;50.046;8.238;2023-11-19T06:18:21;9.75;99.99
66213;SHT31;53015;50.046;8.238;2023-11-19T06:20:47;9.83;99.99
66213;SHT31;53015;50.046;8.238;2023-11-19T06:23:12;9.82;99.99
66213;SHT31;53015;50.046;8.238;2023-11-19T06:25:39;9.85;99.96
66213;SHT31;53015;50.046;8.238;2023-11-19T06:28:05;9.93;99.99
66213;SHT31;53015;50.046;8.238;2023-11-19T06:30:31;9.94;99.85
66213;SHT31;53015;50.046;8.238;2023-11-19T06:32:56;9.87;99.54
66213;SHT31;53015;50.046;8.238;2023-11-19T06:35:22;10.00;99.71
66213;SHT31;53015;50.046;8.238;2023-11-19T06:37:48;10.13;99.46
66213;SHT31;53015;50.046;8.238;2023-11-19T06:40:14;10.28;99.04
66213;SHT31;53015;50.046;8.238;2023-11-19T06:42:39;10.31;98.39
66213;SHT31;53015;50.046;8.238;2023-11-19T06:45:07;10.35;98.26
66213;SHT31;53015;50.046;8.238;2023-11-19T06:47:33;10.25;98.17
66213;SHT31;53015;50.046;8.238;2023-11-19T06:49:58;10.11;98.53
66213;SHT31;53015;50.046;8.238;2023-11-19T06:52:24;10.06;99.14
66213;SHT31;53015;50.046;8.238;2023-11-19T06:54:49;10.08;99.33
66213;SHT31;53015;50.046;8.238;2023-11-19T06:57:16;10.25;99.15
66213;SHT31;53015;50.046;8.238;2023-11-19T06:59:42;10.33;98.55
66213;SHT31;53015;50.046;8.238;2023-11-19T07:02:08;10.31;98.33
66213;SHT31;53015;50.046;8.238;2023-11-19T07:04:34;10.40;98.30
66213;SHT31;53015;50.046;8.238;2023-11-19T07:07:01;10.40;98.56
66213;SHT31;53015;50.046;8.238;2023-11-19T07:09:26;10.55;98.19
66213;SHT31;53015;50.046;8.238;2023-11-19T07:11:52;10.59;97.65
66213;SHT31;53015;50.046;8.238;2023-11-19T07:14:18;10.56;97.59
66213;SHT31;53015;50.046;8.238;2023-11-19T07:16:44;10.44;98.03
66213;SHT31;53015;50.046;8.238;2023-11-19T07:19:10;10.42;98.01
66213;SHT31;53015;50.046;8.238;2023-11-19T07:21:36;10.33;98.42
66213;SHT31;53015;50.046;8.238;2023-11-19T07:24:02;10.42;98.82
66213;SHT31;53015;50.046;8.238;2023-11-19T07:26:28;10.59;98.26
66213;SHT31;53015;50.046;8.238;2023-11-19T07:28:53;10.61;97.81
66213;SHT31;53015;50.046;8.238;2023-11-19T07:31:19;10.45;98.01
66213;SHT31;53015;50.046;8.238;2023-11-19T07:33:45;10.51;98.44
66213;SHT31;53015;50.046;8.238;2023-11-19T07:36:11;10.51;98.63
66213;SHT31;53015;50.046;8.238;2023-11-19T07:38:37;10.41;98.37
66213;SHT31;53015;50.046;8.238;2023-11-19T07:41:03;10.51;99.03
66213;SHT31;53015;50.046;8.238;2023-11-19T07:43:29;10.45;99.13
66213;SHT31;53015;50.046;8.238;2023-11-19T07:45:54;10.54;99.21
66213;SHT31;53015;50.046;8.238;2023-11-19T07:48:20;10.63;98.64
66213;SHT31;53015;50.046;8.238;2023-11-19T07:50:45;10.89;98.54
66213;SHT31;53015;50.046;8.238;2023-11-19T07:53:12;11.04;97.63
66213;SHT31;53015;50.046;8.238;2023-11-19T07:55:38;11.18;97.68
66213;SHT31;53015;50.046;8.238;2023-11-19T07:58:03;11.18;96.66
66213;SHT31;53015;50.046;8.238;2023-11-19T08:00:29;11.27;96.77
66213;SHT31;53015;50.046;8.238;2023-11-19T08:02:54;11.14;97.68
66213;SHT31;53015;50.046;8.238;2023-11-19T08:05:20;11.38;97.51
66213;SHT31;53015;50.046;8.238;2023-11-19T08:07:45;11.35;97.26
66213;SHT31;53015;50.046;8.238;2023-11-19T08:10:12;11.55;97.36
66213;SHT31;53015;50.046;8.238;2023-11-19T08:12:37;11.58;97.09
66213;SHT31;53015;50.046;8.238;2023-11-19T08:15:04;11.66;96.67
66213;SHT31;53015;50.046;8.238;2023-11-19T08:17:29;11.82;96.45
66213;SHT31;53015;50.046;8.238;2023-11-19T08:19:55;11.81;97.10
66213;SHT31;53015;50.046;8.238;2023-11-19T08:22:20;12.03;96.81
66213;SHT31;53015;50.046;8.238;2023-11-19T08:24:46;12.14;95.42
66213;SHT31;53015;50.046;8.238;2023-11-19T08:27:12;12.12;95.74
66213;SHT31;53015;50.046;8.238;2023-11-19T08:29:38;12.16;95.56
66213;SHT31;53015;50.046;8.238;2023-11-19T08:32:04;12.09;95.99
66213;SHT31;53015;50.046;8.238;2023-11-19T08:34:30;12.20;95.69
66213;SHT31;53015;50.046;8.238;2023-11-19T08:36:56;11.92;95.94
66213;SHT31;53015;50.046;8.238;2023-11-19T08:39:21;12.03;96.39
66213;SHT31;53015;50.046;8.238;2023-11-19T08:41:47;12.02;96.45
66213;SHT31;53015;50.046;8.238;2023-11-19T08:44:13;12.06;96.74
66213;SHT31;53015;50.046;8.238;2023-11-19T08:46:44;12.02;96.87
66213;SHT31;53015;50.046;8.238;2023-11-19T08:49:11;12.12;96.96
66213;SHT31;53015;50.046;8.238;2023-11-19T08:51:36;12.20;96.53
66213;SHT31;53015;50.046;8.238;2023-11-19T08:54:02;12.21;96.48
66213;SHT31;53015;50.046;8.238;2023-11-19T08:56:27;12.12;96.56
66213;SHT31;53015;50.046;8.238;2023-11-19T08:58:53;11.87;96.83
66213;SHT31;53015;50.046;8.238;2023-11-19T09:01:19;11.76;97.45
66213;SHT31;53015;50.046;8.238;2023-11-19T09:03:45;11.69;97.59
66213;SHT31;53015;50.046;8.238;2023-11-19T09:06:10;11.66;98.59
66213;SHT31;53015;50.046;8.238;2023-11-19T09:08:36;11.71;98.12
66213;SHT31;53015;50.046;8.238;2023-11-19T09:11:06;11.72;97.71
66213;SHT31;53015;50.046;8.238;2023-11-19T09:13:32;11.68;97.73
66213;SHT31;53015;50.046;8.238;2023-11-19T09:15:57;11.58;97.83
66213;SHT31;53015;50.046;8.238;2023-11-19T09:18:24;11.58;98.20
66213;SHT31;53015;50.046;8.238;2023-11-19T09:20:49;11.58;98.30
66213;SHT31;53015;50.046;8.238;2023-11-19T09:23:15;11.72;98.39
66213;SHT31;53015;50.046;8.238;2023-11-19T09:25:40;11.78;98.42
66213;SHT31;53015;50.046;8.238;2023-11-19T09:28:06;11.97;98.58
66213;SHT31;53015;50.046;8.238;2023-11-19T09:30:31;12.04;98.04
66213;SHT31;53015;50.046;8.238;2023-11-19T09:32:57;12.09;98.17
66213;SHT31;53015;50.046;8.238;2023-11-19T09:35:24;12.24;97.66
66213;SHT31;53015;50.046;8.238;2023-11-19T09:37:49;12.40;97.44
66213;SHT31;53015;50.046;8.238;2023-11-19T09:40:15;12.47;97.28
66213;SHT31;53015;50.046;8.238;2023-11-19T09:42:43;12.57;96.62
66213;SHT31;53015;50.046;8.238;2023-11-19T09:45:13;12.59;96.70
66213;SHT31;53015;50.046;8.238;2023-11-19T09:47:39;12.67;96.34
66213;SHT31;53015;50.046;8.238;2023-11-19T09:50:05;12.74;95.99
66213;SHT31;53015;50.046;8.238;2023-11-19T09:52:32;12.86;95.04
66213;SHT31;53015;50.046;8.238;2023-11-19T09:54:57;13.02;93.88
66213;SHT31;53015;50.046;8.238;2023-11-19T09:57:23;13.13;94.02
66213;SHT31;53015;50.046;8.238;2023-11-19T09:59:50;13.27;93.00
66213;SHT31;53015;50.046;8.238;2023-11-19T10:02:16;13.34;92.46
66213;SHT31;53015;50.046;8.238;2023-11-19T10:04:42;13.44;89.92
66213;SHT31;53015;50.046;8.238;2023-11-19T10:07:08;13.50;88.80
66213;SHT31;53015;50.046;8.238;2023-11-19T10:09:35;13.55;86.81
66213;SHT31;53015;50.046;8.238;2023-11-19T10:12:01;13.57;87.28
66213;SHT31;53015;50.046;8.238;2023-11-19T10:14:28;13.61;86.48
66213;SHT31;53015;50.046;8.238;2023-11-19T10:16:56;13.53;87.78
66213;SHT31;53015;50.046;8.238;2023-11-19T10:19:21;13.54;86.41
66213;SHT31;53015;50.046;8.238;2023-11-19T10:21:48;13.54;85.62
66213;SHT31;53015;50.046;8.238;2023-11-19T10:24:13;13.64;85.15
66213;SHT31;53015;50.046;8.238;2023-11-19T10:26:40;13.71;85.76
66213;SHT31;53015;50.046;8.238;2023-11-19T10:29:06;13.79;83.39
66213;SHT31;53015;50.046;8.238;2023-11-19T10:31:31;13.92;84.27
66213;SHT31;53015;50.046;8.238;2023-11-19T10:33:57;14.01;84.40
66213;SHT31;53015;50.046;8.238;2023-11-19T10:36:22;14.08;83.29
66213;SHT31;53015;50.046;8.238;2023-11-19T10:38:52;14.08;83.46
66213;SHT31;53015;50.046;8.238;2023-11-19T10:41:26;14.08;83.67
66213;SHT31;53015;50.046;8.238;2023-11-19T10:43:53;14.06;82.92
66213;SHT31;53015;50.046;8.238;2023-11-19T10:46:19;14.08;82.44
66213;SHT31;53015;50.046;8.238;2023-11-19T10:48:44;14.13;82.68
66213;SHT31;53015;50.046;8.238;2023-11-19T10:51:10;14.09;82.98
66213;SHT31;53015;50.046;8.238;2023-11-19T10:53:40;14.05;82.73
66213;SHT31;53015;50.046;8.238;2023-11-19T10:56:10;14.05;81.99
66213;SHT31;53015;50.046;8.238;2023-11-19T10:58:36;14.04;83.61
66213;SHT31;53015;50.046;8.238;2023-11-19T11:01:08;14.16;81.73
66213;SHT31;53015;50.046;8.238;2023-11-19T11:03:39;14.26;82.24
66213;SHT31;53015;50.046;8.238;2023-11-19T11:06:05;14.33;81.86
66213;SHT31;53015;50.046;8.238;2023-11-19T11:08:31;14.53;82.10
66213;SHT31;53015;50.046;8.238;2023-11-19T11:10:57;14.63;81.17
66213;SHT31;53015;50.046;8.238;2023-11-19T11:13:23;14.75;79.75
66213;SHT31;53015;50.046;8.238;2023-11-19T11:15:50;14.75;78.57
66213;SHT31;53015;50.046;8.238;2023-11-19T11:18:17;14.59;78.84
66213;SHT31;53015;50.046;8.238;2023-11-19T11:20:44;14.51;79.12
66213;SHT31;53015;50.046;8.238;2023-11-19T11:26:20;14.68;79.48
66213;SHT31;53015;50.046;8.238;2023-11-19T11:28:56;14.95;79.54
66213;SHT31;53015;50.046;8.238;2023-11-19T11:31:31;14.92;78.41
66213;SHT31;53015;50.046;8.238;2023-11-19T11:34:15;14.96;79.68
66213;SHT31;53015;50.046;8.238;2023-11-19T11:37:03;15.09;78.08
66213;SHT31;53015;50.046;8.238;2023-11-19T11:39:32;14.88;76.74
66213;SHT31;53015;50.046;8.238;2023-11-19T11:42:34;14.79;77.40
66213;SHT31;53015;50.046;8.238;2023-11-19T11:45:00;14.57;78.25
66213;SHT31;53015;50.046;8.238;2023-11-19T11:47:26;14.43;78.85
66213;SHT31;53015;50.046;8.238;2023-11-19T11:50:14;14.29;79.07
66213;SHT31;53015;50.046;8.238;2023-11-19T11:55:53;14.29;78.84
66213;SHT31;53015;50.046;8.238;2023-11-19T11:58:19;14.15;79.44
66213;SHT31;53015;50.046;8.238;2023-11-19T12:00:46;14.10;78.21
66213;SHT31;53015;50.046;8.238;2023-11-19T12:03:12;14.06;78.03
66213;SHT31;53015;50.046;8.238;2023-11-19T12:05:40;14.06;78.70
66213;SHT31;53015;50.046;8.238;2023-11-19T12:08:07;14.09;78.43
66213;SHT31;53015;50.046;8.238;2023-11-19T12:10:36;14.09;78.40
66213;SHT31;53015;50.046;8.238;2023-11-19T12:13:05;14.04;78.72
66213;SHT31;53015;50.046;8.238;2023-11-19T12:15:30;14.06;78.31
66213;SHT31;53015;50.046;8.238;2023-11-19T12:17:56;14.10;78.00
66213;SHT31;53015;50.046;8.238;2023-11-19T12:20:23;14.13;77.65
66213;SHT31;53015;50.046;8.238;2023-11-19T12:22:50;14.26;76.84
66213;SHT31;53015;50.046;8.238;2023-11-19T12:25:16;14.29;77.16
66213;SHT31;53015;50.046;8.238;2023-11-19T12:27:44;14.33;76.68
66213;SHT31;53015;50.046;8.238;2023-11-19T12:30:10;14.29;77.85
66213;SHT31;53015;50.046;8.238;2023-11-19T12:32:40;14.36;76.47
66213;SHT31;53015;50.046;8.238;2023-11-19T12:35:06;14.40;76.23
66213;SHT31;53015;50.046;8.238;2023-11-19T12:37:32;14.41;77.38
66213;SHT31;53015;50.046;8.238;2023-11-19T12:39:59;14.44;77.09
66213;SHT31;53015;50.046;8.238;2023-11-19T12:42:35;14.45;76.71
66213;SHT31;53015;50.046;8.238;2023-11-19T12:45:00;14.45;77.54
66213;SHT31;53015;50.046;8.238;2023-11-19T12:47:26;14.47;76.56
66213;SHT31;53015;50.046;8.238;2023-11-19T12:49:57;14.43;76.00
66213;SHT31;53015;50.046;8.238;2023-11-19T12:52:23;14.38;76.47
66213;SHT31;53015;50.046;8.238;2023-11-19T12:54:49;14.34;77.00
66213;SHT31;53015;50.046;8.238;2023-11-19T12:57:16;14.43;76.76
66213;SHT31;53015;50.046;8.238;2023-11-19T12:59:41;14.43;76.62
66213;SHT31;53015;50.046;8.238;2023-11-19T13:02:07;14.45;77.58
66213;SHT31;53015;50.046;8.238;2023-11-19T13:04:32;14.57;75.63
66213;SHT31;53015;50.046;8.238;2023-11-19T13:06:58;14.65;75.16
66213;SHT31;53015;50.046;8.238;2023-11-19T13:09:24;14.77;75.42
66213;SHT31;53015;50.046;8.238;2023-11-19T13:11:50;14.82;75.07
66213;SHT31;53015;50.046;8.238;2023-11-19T13:14:17;14.93;73.46
66213;SHT31;53015;50.046;8.238;2023-11-19T13:16:42;14.96;71.70
66213;SHT31;53015;50.046;8.238;2023-11-19T13:19:08;14.87;73.20
66213;SHT31;53015;50.046;8.238;2023-11-19T13:21:33;14.89;71.48
66213;SHT31;53015;50.046;8.238;2023-11-19T13:23:59;14.88;72.74
66213;SHT31;53015;50.046;8.238;2023-11-19T13:26:25;14.82;72.66
66213;SHT31;53015;50.046;8.238;2023-11-19T13:28:50;14.77;73.81
66213;SHT31;53015;50.046;8.238;2023-11-19T13:31:17;14.77;71.50
66213;SHT31;53015;50.046;8.238;2023-11-19T13:33:42;14.74;71.86
66213;SHT31;53015;50.046;8.238;2023-11-19T13:36:09;14.71;71.19
66213;SHT31;53015;50.046;8.238;2023-11-19T13:38:34;14.59;71.97
66213;SHT31;53015;50.046;8.238;2023-11-19T13:41:00;14.45;72.46
66213;SHT31;53015;50.046;8.238;2023-11-19T13:43:25;14.45;71.97
66213;SHT31;53015;50.046;8.238;2023-11-19T13:45:51;14.44;71.92
66213;SHT31;53015;50.046;8.238;2023-11-19T13:48:18;14.40;73.47
66213;SHT31;53015;50.046;8.238;2023-11-19T13:50:43;14.33;72.84
66213;SHT31;53015;50.046;8.238;2023-11-19T13:53:09;14.34;72.07
66213;SHT31;53015;50.046;8.238;2023-11-19T13:55:34;14.44;70.12
66213;SHT31;53015;50.046;8.238;2023-11-19T13:58:00;14.51;70.22
66213;SHT31;53015;50.046;8.238;2023-11-19T14:00:25;14.47;70.89
66213;SHT31;53015;50.046;8.238;2023-11-19T14:02:51;14.48;70.40
66213;SHT31;53015;50.046;8.238;2023-11-19T14:05:17;14.44;70.72
66213;SHT31;53015;50.046;8.238;2023-11-19T14:07:44;14.37;71.92
66213;SHT31;53015;50.046;8.238;2023-11-19T14:10:10;14.36;71.46
66213;SHT31;53015;50.046;8.238;2023-11-19T14:12:35;14.29;72.10
66213;SHT31;53015;50.046;8.238;2023-11-19T14:15:01;14.22;73.55
66213;SHT31;53015;50.046;8.238;2023-11-19T14:17:26;14.19;73.18
66213;SHT31;53015;50.046;8.238;2023-11-19T14:19:52;14.06;74.27
66213;SHT31;53015;50.046;8.238;2023-11-19T14:22:19;14.02;74.20
66213;SHT31;53015;50.046;8.238;2023-11-19T14:24:44;13.99;73.91
66213;SHT31;53015;50.046;8.238;2023-11-19T14:27:10;13.95;74.68
66213;SHT31;53015;50.046;8.238;2023-11-19T14:29:36;13.92;75.09
66213;SHT31;53015;50.046;8.238;2023-11-19T14:32:02;13.95;75.09
66213;SHT31;53015;50.046;8.238;2023-11-19T14:34:28;13.92;74.05
66213;SHT31;53015;50.046;8.238;2023-11-19T14:36:53;13.94;74.04
66213;SHT31;53015;50.046;8.238;2023-11-19T14:39:20;13.96;73.80
66213;SHT31;53015;50.046;8.238;2023-11-19T14:41:46;13.96;73.39
66213;SHT31;53015;50.046;8.238;2023-11-19T14:44:12;13.86;74.10
66213;SHT31;53015;50.046;8.238;2023-11-19T14:46:37;13.86;73.83
66213;SHT31;53015;50.046;8.238;2023-11-19T14:49:03;13.74;74.91
66213;SHT31;53015;50.046;8.238;2023-11-19T14:51:29;13.75;73.42
66213;SHT31;53015;50.046;8.238;2023-11-19T14:53:54;13.71;74.20
66213;SHT31;53015;50.046;8.238;2023-11-19T14:56:21;13.62;74.16
66213;SHT31;53015;50.046;8.238;2023-11-19T14:58:47;13.65;74.31
66213;SHT31;53015;50.046;8.238;2023-11-19T15:01:13;13.62;74.10
66213;SHT31;53015;50.046;8.238;2023-11-19T15:03:38;13.58;74.06
66213;SHT31;53015;50.046;8.238;2023-11-19T15:06:04;13.57;74.72
66213;SHT31;53015;50.046;8.238;2023-11-19T15:08:30;13.48;74.35
66213;SHT31;53015;50.046;8.238;2023-11-19T15:10:55;13.48;74.38
66213;SHT31;53015;50.046;8.238;2023-11-19T15:13:22;13.48;74.32
66213;SHT31;53015;50.046;8.238;2023-11-19T15:15:48;13.53;74.16
66213;SHT31;53015;50.046;8.238;2023-11-19T15:18:13;13.43;75.00
66213;SHT31;53015;50.046;8.238;2023-11-19T15:20:39;13.31;75.65
66213;SHT31;53015;50.046;8.238;2023-11-19T15:23:04;13.36;75.51
66213;SHT31;53015;50.046;8.238;2023-11-19T15:25:30;13.27;75.60
66213;SHT31;53015;50.046;8.238;2023-11-19T15:27:55;13.17;76.14
66213;SHT31;53015;50.046;8.238;2023-11-19T15:30:22;13.07;76.34
66213;SHT31;53015;50.046;8.238;2023-11-19T15:32:47;13.04;76.55
66213;SHT31;53015;50.046;8.238;2023-11-19T15:35:13;12.96;76.46
66213;SHT31;53015;50.046;8.238;2023-11-19T15:37:38;12.91;76.67